sensor_id;sensor_type;location;lat;lon;timestamp;pressure;altitude;pressure_sealevel;temperature
79228;BMP280;68658;46.174;11.254;2023-04-24T00:00:54;91741.38;;;11.46
79228;BMP280;68658;46.174;11.254;2023-04-24T00:03:22;91749.09;;;11.44
79228;BMP280;68658;46.174;11.254;2023-04-24T00:05:48;91752.75;;;11.41
79228;BMP280;68658;46.174;11.254;2023-04-24T00:08:13;91737.00;;;11.36
79228;BMP280;68658;46.174;11.254;2023-04-24T00:10:39;91756.09;;;11.42
79228;BMP280;68658;46.174;11.254;2023-04-24T00:13:04;91750.41;;;11.38
79228;BMP280;68658;46.174;11.254;2023-04-24T00:15:30;91754.59;;;11.33
79228;BMP280;68658;46.174;11.254;2023-04-24T00:17:56;91752.13;;;11.35
79228;BMP280;68658;46.174;11.254;2023-04-24T00:20:21;91763.44;;;11.36
79228;BMP280;68658;46.174;11.254;2023-04-24T00:22:47;91762.00;;;11.35
79228;BMP280;68658;46.174;11.254;2023-04-24T00:25:13;91754.69;;;11.41
79228;BMP280;68658;46.174;11.254;2023-04-24T00:27:38;91757.41;;;11.35
79228;BMP280;68658;46.174;11.254;2023-04-24T00:30:04;91755.19;;;11.13
79228;BMP280;68658;46.174;11.254;2023-04-24T00:32:30;91748.59;;;11.07
79228;BMP280;68658;46.174;11.254;2023-04-24T00:34:55;91758.03;;;11.02
79228;BMP280;68658;46.174;11.254;2023-04-24T00:37:21;91745.22;;;10.93
79228;BMP280;68658;46.174;11.254;2023-04-24T00:39:46;91744.00;;;11.07
79228;BMP280;68658;46.174;11.254;2023-04-24T00:42:12;91734.56;;;11.12
79228;BMP280;68658;46.174;11.254;2023-04-24T00:44:38;91730.19;;;11.14
79228;BMP280;68658;46.174;11.254;2023-04-24T00:47:04;91723.09;;;11.22
79228;BMP280;68658;46.174;11.254;2023-04-24T00:49:29;91721.56;;;11.14
79228;BMP280;68658;46.174;11.254;2023-04-24T00:51:56;91719.75;;;11.22
79228;BMP280;68658;46.174;11.254;2023-04-24T00:54:22;91704.78;;;11.24
79228;BMP280;68658;46.174;11.254;2023-04-24T00:56:48;91704.28;;;11.13
79228;BMP280;68658;46.174;11.254;2023-04-24T00:59:16;91702.75;;;11.04
79228;BMP280;68658;46.174;11.254;2023-04-24T01:01:42;91696.47;;;11.07
79228;BMP280;68658;46.174;11.254;2023-04-24T01:04:09;91689.66;;;10.99
79228;BMP280;68658;46.174;11.254;2023-04-24T01:06:39;91680.31;;;10.98
79228;BMP280;68658;46.174;11.254;2023-04-24T01:09:04;91681.63;;;11.04
79228;BMP280;68658;46.174;11.254;2023-04-24T01:11:30;91679.91;;;11.07
79228;BMP280;68658;46.174;11.254;2023-04-24T01:13:56;91671.78;;;11.05
79228;BMP280;68658;46.174;11.254;2023-04-24T01:16:22;91676.75;;;11.08
79228;BMP280;68658;46.174;11.254;2023-04-24T01:18:48;91680.31;;;11.11
79228;BMP280;68658;46.174;11.254;2023-04-24T01:21:15;91671.69;;;11.10
79228;BMP280;68658;46.174;11.254;2023-04-24T01:23:43;91668.09;;;11.08
79228;BMP280;68658;46.174;11.254;2023-04-24T01:26:09;91664.97;;;11.09
79228;BMP280;68658;46.174;11.254;2023-04-24T01:28:34;91660.59;;;11.12
79228;BMP280;68658;46.174;11.254;2023-04-24T01:31:00;91649.13;;;11.09
79228;BMP280;68658;46.174;11.254;2023-04-24T01:33:25;91645.88;;;11.03
79228;BMP280;68658;46.174;11.254;2023-04-24T01:35:51;91648.03;;;10.92
79228;BMP280;68658;46.174;11.254;2023-04-24T01:38:17;91648.09;;;10.99
79228;BMP280;68658;46.174;11.254;2023-04-24T01:40:43;91645.75;;;11.09
79228;BMP280;68658;46.174;11.254;2023-04-24T01:43:08;91646.47;;;11.09
79228;BMP280;68658;46.174;11.254;2023-04-24T01:45:34;91644.00;;;11.11
79228;BMP280;68658;46.174;11.254;2023-04-24T01:48:00;91646.47;;;11.09
79228;BMP280;68658;46.174;11.254;2023-04-24T01:50:25;91636.59;;;11.10
79228;BMP280;68658;46.174;11.254;2023-04-24T01:52:51;91638.34;;;11.07
79228;BMP280;68658;46.174;11.254;2023-04-24T01:55:16;91630.81;;;11.11
79228;BMP280;68658;46.174;11.254;2023-04-24T01:57:45;91622.81;;;11.04
79228;BMP280;68658;46.174;11.254;2023-04-24T02:00:11;91627.97;;;10.96
79228;BMP280;68658;46.174;11.254;2023-04-24T02:02:37;91632.03;;;10.97
79228;BMP280;68658;46.174;11.254;2023-04-24T02:05:06;91630.53;;;11.02
79228;BMP280;68658;46.174;11.254;2023-04-24T02:07:31;91624.75;;;11.03
79228;BMP280;68658;46.174;11.254;2023-04-24T02:09:57;91619.47;;;11.03
79228;BMP280;68658;46.174;11.254;2023-04-24T02:12:23;91614.78;;;10.96
79228;BMP280;68658;46.174;11.254;2023-04-24T02:14:49;91610.53;;;10.93
79228;BMP280;68658;46.174;11.254;2023-04-24T02:17:14;91616.94;;;10.98
79228;BMP280;68658;46.174;11.254;2023-04-24T02:19:41;91609.50;;;10.96
79228;BMP280;68658;46.174;11.254;2023-04-24T02:22:07;91610.00;;;10.95
79228;BMP280;68658;46.174;11.254;2023-04-24T02:24:32;91614.28;;;10.98
79228;BMP280;68658;46.174;11.254;2023-04-24T02:26:57;91608.59;;;10.94
79228;BMP280;68658;46.174;11.254;2023-04-24T02:29:26;91603.72;;;10.98
79228;BMP280;68658;46.174;11.254;2023-04-24T02:31:51;91600.75;;;11.01
79228;BMP280;68658;46.174;11.254;2023-04-24T02:34:16;91595.28;;;10.99
79228;BMP280;68658;46.174;11.254;2023-04-24T02:36:42;91588.56;;;10.98
79228;BMP280;68658;46.174;11.254;2023-04-24T02:39:07;91592.44;;;10.84
79228;BMP280;68658;46.174;11.254;2023-04-24T02:41:33;91597.03;;;10.71
79228;BMP280;68658;46.174;11.254;2023-04-24T02:43:58;91592.16;;;10.75
79228;BMP280;68658;46.174;11.254;2023-04-24T02:46:24;91588.69;;;10.80
79228;BMP280;68658;46.174;11.254;2023-04-24T02:48:50;91585.97;;;10.73
79228;BMP280;68658;46.174;11.254;2023-04-24T02:51:15;91580.69;;;10.60
79228;BMP280;68658;46.174;11.254;2023-04-24T02:53:41;91590.13;;;10.55
79228;BMP280;68658;46.174;11.254;2023-04-24T02:56:06;91583.31;;;10.60
79228;BMP280;68658;46.174;11.254;2023-04-24T02:58:31;91582.81;;;10.74
79228;BMP280;68658;46.174;11.254;2023-04-24T03:00:57;91573.16;;;10.77
79228;BMP280;68658;46.174;11.254;2023-04-24T03:03:22;91579.56;;;10.81
79228;BMP280;68658;46.174;11.254;2023-04-24T03:05:48;91569.09;;;10.88
79228;BMP280;68658;46.174;11.254;2023-04-24T03:08:14;91572.66;;;10.91
79228;BMP280;68658;46.174;11.254;2023-04-24T03:10:40;91575.59;;;10.87
79228;BMP280;68658;46.174;11.254;2023-04-24T03:13:05;91571.13;;;10.82
79228;BMP280;68658;46.174;11.254;2023-04-24T03:15:31;91566.56;;;10.83
79228;BMP280;68658;46.174;11.254;2023-04-24T03:17:56;91555.50;;;10.72
79228;BMP280;68658;46.174;11.254;2023-04-24T03:20:21;91558.03;;;10.77
79228;BMP280;68658;46.174;11.254;2023-04-24T03:22:47;91553.84;;;10.81
79228;BMP280;68658;46.174;11.254;2023-04-24T03:25:12;91561.19;;;10.88
79228;BMP280;68658;46.174;11.254;2023-04-24T03:27:38;91541.66;;;10.91
79228;BMP280;68658;46.174;11.254;2023-04-24T03:30:06;91554.25;;;10.85
79228;BMP280;68658;46.174;11.254;2023-04-24T03:32:31;91551.63;;;10.85
79228;BMP280;68658;46.174;11.254;2023-04-24T03:34:57;91542.69;;;10.88
79228;BMP280;68658;46.174;11.254;2023-04-24T03:37:23;91546.44;;;10.80
79228;BMP280;68658;46.174;11.254;2023-04-24T03:39:48;91550.22;;;10.72
79228;BMP280;68658;46.174;11.254;2023-04-24T03:42:14;91565.66;;;10.68
79228;BMP280;68658;46.174;11.254;2023-04-24T03:44:40;91555.81;;;10.68
79228;BMP280;68658;46.174;11.254;2023-04-24T03:47:05;91565.03;;;10.62
79228;BMP280;68658;46.174;11.254;2023-04-24T03:49:30;91572.13;;;10.67
79228;BMP280;68658;46.174;11.254;2023-04-24T03:51:56;91582.53;;;10.65
79228;BMP280;68658;46.174;11.254;2023-04-24T03:54:21;91588.72;;;10.54
79228;BMP280;68658;46.174;11.254;2023-04-24T03:56:47;91586.66;;;10.34
79228;BMP280;68658;46.174;11.254;2023-04-24T03:59:12;91590.31;;;10.44
79228;BMP280;68658;46.174;11.254;2023-04-24T04:01:38;91592.44;;;10.46
79228;BMP280;68658;46.174;11.254;2023-04-24T04:04:08;91592.97;;;10.31
79228;BMP280;68658;46.174;11.254;2023-04-24T04:06:33;91603.41;;;10.24
79228;BMP280;68658;46.174;11.254;2023-04-24T04:08:59;91613.72;;;10.22
79228;BMP280;68658;46.174;11.254;2023-04-24T04:11:26;91609.50;;;10.32
79228;BMP280;68658;46.174;11.254;2023-04-24T04:13:51;91608.88;;;10.39
79228;BMP280;68658;46.174;11.254;2023-04-24T04:16:17;91609.50;;;10.45
79228;BMP280;68658;46.174;11.254;2023-04-24T04:18:43;91612.97;;;10.53
79228;BMP280;68658;46.174;11.254;2023-04-24T04:21:09;91622.50;;;10.56
79228;BMP280;68658;46.174;11.254;2023-04-24T04:23:34;91627.06;;;10.55
79228;BMP280;68658;46.174;11.254;2023-04-24T04:26:00;91630.22;;;10.54
79228;BMP280;68658;46.174;11.254;2023-04-24T04:28:26;91644.22;;;10.49
79228;BMP280;68658;46.174;11.254;2023-04-24T04:30:52;91650.03;;;10.47
79228;BMP280;68658;46.174;11.254;2023-04-24T04:33:21;91656.22;;;10.50
79228;BMP280;68658;46.174;11.254;2023-04-24T04:35:47;91663.22;;;10.47
79228;BMP280;68658;46.174;11.254;2023-04-24T04:38:17;91676.22;;;10.14
79228;BMP280;68658;46.174;11.254;2023-04-24T04:40:43;91686.16;;;9.90
79228;BMP280;68658;46.174;11.254;2023-04-24T04:43:09;91696.88;;;9.60
79228;BMP280;68658;46.174;11.254;2023-04-24T04:45:35;91720.38;;;9.40
79228;BMP280;68658;46.174;11.254;2023-04-24T04:48:01;91737.13;;;9.19
79228;BMP280;68658;46.174;11.254;2023-04-24T04:50:27;91751.69;;;9.01
79228;BMP280;68658;46.174;11.254;2023-04-24T04:52:53;91760.22;;;9.07
79228;BMP280;68658;46.174;11.254;2023-04-24T04:55:18;91773.34;;;8.89
79228;BMP280;68658;46.174;11.254;2023-04-24T04:57:48;91780.47;;;8.70
79228;BMP280;68658;46.174;11.254;2023-04-24T05:00:14;91780.63;;;8.77
79228;BMP280;68658;46.174;11.254;2023-04-24T05:02:39;91788.97;;;8.81
79228;BMP280;68658;46.174;11.254;2023-04-24T05:05:06;91788.47;;;8.83
79228;BMP280;68658;46.174;11.254;2023-04-24T05:07:32;91805.38;;;8.93
79228;BMP280;68658;46.174;11.254;2023-04-24T05:09:58;91797.81;;;8.84
79228;BMP280;68658;46.174;11.254;2023-04-24T05:12:23;91796.00;;;8.97
79228;BMP280;68658;46.174;11.254;2023-04-24T05:14:48;91810.19;;;8.89
79228;BMP280;68658;46.174;11.254;2023-04-24T05:17:15;91810.19;;;8.89
79228;BMP280;68658;46.174;11.254;2023-04-24T05:19:40;91813.72;;;8.97
79228;BMP280;68658;46.174;11.254;2023-04-24T05:22:06;91809.97;;;8.87
79228;BMP280;68658;46.174;11.254;2023-04-24T05:24:35;91814.78;;;8.83
79228;BMP280;68658;46.174;11.254;2023-04-24T05:27:02;91812.25;;;8.72
79228;BMP280;68658;46.174;11.254;2023-04-24T05:29:28;91811.69;;;8.55
79228;BMP280;68658;46.174;11.254;2023-04-24T05:31:56;91808.47;;;8.67
79228;BMP280;68658;46.174;11.254;2023-04-24T05:34:21;91814.50;;;8.57
79228;BMP280;68658;46.174;11.254;2023-04-24T05:36:47;91807.69;;;8.43
79228;BMP280;68658;46.174;11.254;2023-04-24T05:39:13;91814.63;;;8.46
79228;BMP280;68658;46.174;11.254;2023-04-24T05:41:39;91809.84;;;8.45
79228;BMP280;68658;46.174;11.254;2023-04-24T05:44:04;91812.41;;;8.50
79228;BMP280;68658;46.174;11.254;2023-04-24T05:46:30;91821.94;;;8.24
79228;BMP280;68658;46.174;11.254;2023-04-24T05:48:55;91825.97;;;8.30
79228;BMP280;68658;46.174;11.254;2023-04-24T05:51:21;91833.84;;;8.30
79228;BMP280;68658;46.174;11.254;2023-04-24T05:53:49;91834.50;;;7.96
79228;BMP280;68658;46.174;11.254;2023-04-24T05:56:15;91838.97;;;8.06
79228;BMP280;68658;46.174;11.254;2023-04-24T05:58:41;91838.69;;;8.21
79228;BMP280;68658;46.174;11.254;2023-04-24T06:01:07;91840.41;;;8.07
79228;BMP280;68658;46.174;11.254;2023-04-24T06:03:34;91840.22;;;8.00
79228;BMP280;68658;46.174;11.254;2023-04-24T06:05:59;91837.22;;;7.79
79228;BMP280;68658;46.174;11.254;2023-04-24T06:08:27;91834.75;;;7.92
79228;BMP280;68658;46.174;11.254;2023-04-24T06:10:53;91836.19;;;7.93
79228;BMP280;68658;46.174;11.254;2023-04-24T06:13:19;91838.13;;;7.87
79228;BMP280;68658;46.174;11.254;2023-04-24T06:15:44;91840.41;;;8.07
79228;BMP280;68658;46.174;11.254;2023-04-24T06:18:10;91839.72;;;8.07
79228;BMP280;68658;46.174;11.254;2023-04-24T06:20:36;91831.13;;;8.01
79228;BMP280;68658;46.174;11.254;2023-04-24T06:23:01;91829.38;;;8.14
79228;BMP280;68658;46.174;11.254;2023-04-24T06:25:27;91828.19;;;8.15
79228;BMP280;68658;46.174;11.254;2023-04-24T06:27:56;91816.03;;;8.07
79228;BMP280;68658;46.174;11.254;2023-04-24T06:30:22;91820.78;;;8.14
79228;BMP280;68658;46.174;11.254;2023-04-24T06:32:47;91811.66;;;8.20
79228;BMP280;68658;46.174;11.254;2023-04-24T06:35:16;91814.75;;;8.24
79228;BMP280;68658;46.174;11.254;2023-04-24T06:37:42;91818.63;;;8.12
79228;BMP280;68658;46.174;11.254;2023-04-24T06:40:08;91811.94;;;8.17
79228;BMP280;68658;46.174;11.254;2023-04-24T06:42:34;91802.81;;;8.23
79228;BMP280;68658;46.174;11.254;2023-04-24T06:45:00;91806.41;;;8.20
79228;BMP280;68658;46.174;11.254;2023-04-24T06:47:26;91809.75;;;8.26
79228;BMP280;68658;46.174;11.254;2023-04-24T06:49:52;91800.84;;;8.29
79228;BMP280;68658;46.174;11.254;2023-04-24T06:52:18;91797.09;;;8.19
79228;BMP280;68658;46.174;11.254;2023-04-24T06:54:44;91794.72;;;8.16
79228;BMP280;68658;46.174;11.254;2023-04-24T06:57:09;91794.44;;;8.25
79228;BMP280;68658;46.174;11.254;2023-04-24T06:59:38;91792.81;;;8.16
79228;BMP280;68658;46.174;11.254;2023-04-24T07:02:03;91787.06;;;8.12
79228;BMP280;68658;46.174;11.254;2023-04-24T07:04:29;91782.97;;;8.22
79228;BMP280;68658;46.174;11.254;2023-04-24T07:06:58;91767.56;;;8.37
79228;BMP280;68658;46.174;11.254;2023-04-24T07:09:24;91766.06;;;8.47
79228;BMP280;68658;46.174;11.254;2023-04-24T07:11:51;91759.25;;;8.57
79228;BMP280;68658;46.174;11.254;2023-04-24T07:14:16;91744.56;;;8.43
79228;BMP280;68658;46.174;11.254;2023-04-24T07:16:42;91748.06;;;8.51
79228;BMP280;68658;46.174;11.254;2023-04-24T07:19:08;91746.34;;;8.59
79228;BMP280;68658;46.174;11.254;2023-04-24T07:21:34;91747.00;;;8.65
79228;BMP280;68658;46.174;11.254;2023-04-24T07:24:00;91735.78;;;8.35
79228;BMP280;68658;46.174;11.254;2023-04-24T07:26:27;91734.91;;;8.51
79228;BMP280;68658;46.174;11.254;2023-04-24T07:28:52;91725.25;;;8.64
79228;BMP280;68658;46.174;11.254;2023-04-24T07:31:21;91720.81;;;8.78
79228;BMP280;68658;46.174;11.254;2023-04-24T07:33:47;91708.19;;;8.95
79228;BMP280;68658;46.174;11.254;2023-04-24T07:36:13;91706.59;;;9.10
79228;BMP280;68658;46.174;11.254;2023-04-24T07:38:42;91708.50;;;9.10
79228;BMP280;68658;46.174;11.254;2023-04-24T07:41:08;91684.44;;;9.19
79228;BMP280;68658;46.174;11.254;2023-04-24T07:43:34;91683.69;;;9.23
79228;BMP280;68658;46.174;11.254;2023-04-24T07:46:00;91684.91;;;9.23
79228;BMP280;68658;46.174;11.254;2023-04-24T07:48:26;91670.38;;;9.34
79228;BMP280;68658;46.174;11.254;2023-04-24T07:50:52;91671.63;;;9.46
79228;BMP280;68658;46.174;11.254;2023-04-24T07:53:18;91674.22;;;9.52
79228;BMP280;68658;46.174;11.254;2023-04-24T07:55:43;91680.91;;;9.71
79228;BMP280;68658;46.174;11.254;2023-04-24T07:58:09;91668.50;;;9.66
79228;BMP280;68658;46.174;11.254;2023-04-24T08:00:34;91672.41;;;9.78
79228;BMP280;68658;46.174;11.254;2023-04-24T08:03:00;91668.34;;;9.77
79228;BMP280;68658;46.174;11.254;2023-04-24T08:05:26;91666.41;;;9.96
79228;BMP280;68658;46.174;11.254;2023-04-24T08:07:52;91659.00;;;9.95
79228;BMP280;68658;46.174;11.254;2023-04-24T08:10:18;91664.94;;;10.01
79228;BMP280;68658;46.174;11.254;2023-04-24T08:12:44;91658.22;;;10.00
79228;BMP280;68658;46.174;11.254;2023-04-24T08:15:13;91662.53;;;10.15
79228;BMP280;68658;46.174;11.254;2023-04-24T08:17:39;91654.50;;;9.90
79228;BMP280;68658;46.174;11.254;2023-04-24T08:20:05;91644.81;;;9.98
79228;BMP280;68658;46.174;11.254;2023-04-24T08:22:33;91658.88;;;10.18
79228;BMP280;68658;46.174;11.254;2023-04-24T08:24:59;91657.94;;;9.85
79228;BMP280;68658;46.174;11.254;2023-04-24T08:27:26;91653.06;;;10.07
79228;BMP280;68658;46.174;11.254;2023-04-24T08:29:53;91652.28;;;10.12
79228;BMP280;68658;46.174;11.254;2023-04-24T08:32:18;91658.34;;;9.89
79228;BMP280;68658;46.174;11.254;2023-04-24T08:34:44;91656.16;;;9.93
79228;BMP280;68658;46.174;11.254;2023-04-24T08:37:10;91653.25;;;9.78
79228;BMP280;68658;46.174;11.254;2023-04-24T08:39:36;91645.81;;;9.95
79228;BMP280;68658;46.174;11.254;2023-04-24T08:42:02;91648.50;;;10.07
79228;BMP280;68658;46.174;11.254;2023-04-24T08:44:34;91648.28;;;9.74
79228;BMP280;68658;46.174;11.254;2023-04-24T08:47:04;91660.88;;;9.81
79228;BMP280;68658;46.174;11.254;2023-04-24T08:49:30;91656.13;;;10.11
79228;BMP280;68658;46.174;11.254;2023-04-24T08:51:56;91658.28;;;10.25
79228;BMP280;68658;46.174;11.254;2023-04-24T08:54:22;91658.78;;;10.24
79228;BMP280;68658;46.174;11.254;2023-04-24T08:56:48;91666.44;;;10.40
79228;BMP280;68658;46.174;11.254;2023-04-24T08:59:15;91654.91;;;10.12
79228;BMP280;68658;46.174;11.254;2023-04-24T09:01:41;91652.59;;;10.21
79228;BMP280;68658;46.174;11.254;2023-04-24T09:04:08;91658.50;;;10.40
79228;BMP280;68658;46.174;11.254;2023-04-24T09:06:38;91657.44;;;10.62
79228;BMP280;68658;46.174;11.254;2023-04-24T09:09:04;91654.78;;;10.75
79228;BMP280;68658;46.174;11.254;2023-04-24T09:11:31;91659.69;;;10.83
79228;BMP280;68658;46.174;11.254;2023-04-24T09:13:58;91656.72;;;10.87
79228;BMP280;68658;46.174;11.254;2023-04-24T09:16:26;91661.00;;;11.03
79228;BMP280;68658;46.174;11.254;2023-04-24T09:18:52;91678.25;;;10.65
79228;BMP280;68658;46.174;11.254;2023-04-24T09:21:20;91677.28;;;10.37
79228;BMP280;68658;46.174;11.254;2023-04-24T09:23:46;91671.81;;;10.35
79228;BMP280;68658;46.174;11.254;2023-04-24T09:26:11;91677.78;;;10.35
79228;BMP280;68658;46.174;11.254;2023-04-24T09:28:39;91678.94;;;10.40
79228;BMP280;68658;46.174;11.254;2023-04-24T09:31:12;91683.38;;;10.32
79228;BMP280;68658;46.174;11.254;2023-04-24T09:33:39;91682.06;;;10.38
79228;BMP280;68658;46.174;11.254;2023-04-24T09:36:05;91689.25;;;10.82
79228;BMP280;68658;46.174;11.254;2023-04-24T09:41:02;91691.75;;;10.49
79228;BMP280;68658;46.174;11.254;2023-04-24T09:43:29;91699.22;;;10.45
79228;BMP280;68658;46.174;11.254;2023-04-24T09:45:59;91702.91;;;10.55
79228;BMP280;68658;46.174;11.254;2023-04-24T09:48:33;91701.94;;;10.96
79228;BMP280;68658;46.174;11.254;2023-04-24T09:51:00;91708.44;;;10.82
79228;BMP280;68658;46.174;11.254;2023-04-24T09:53:27;91704.56;;;10.96
79228;BMP280;68658;46.174;11.254;2023-04-24T09:55:52;91697.47;;;11.04
79228;BMP280;68658;46.174;11.254;2023-04-24T09:58:24;91706.63;;;11.29
79228;BMP280;68658;46.174;11.254;2023-04-24T10:00:53;91703.03;;;11.53
79228;BMP280;68658;46.174;11.254;2023-04-24T10:03:19;91704.47;;;11.28
79228;BMP280;68658;46.174;11.254;2023-04-24T10:05:46;91694.00;;;11.48
79228;BMP280;68658;46.174;11.254;2023-04-24T10:08:14;91693.78;;;11.59
79228;BMP280;68658;46.174;11.254;2023-04-24T10:10:41;91699.69;;;11.52
79228;BMP280;68658;46.174;11.254;2023-04-24T10:13:09;91703.84;;;11.73
79228;BMP280;68658;46.174;11.254;2023-04-24T10:15:36;91701.19;;;11.60
79228;BMP280;68658;46.174;11.254;2023-04-24T10:18:04;91703.25;;;11.55
79228;BMP280;68658;46.174;11.254;2023-04-24T10:20:35;91701.19;;;11.73
79228;BMP280;68658;46.174;11.254;2023-04-24T10:23:01;91698.66;;;12.01
79228;BMP280;68658;46.174;11.254;2023-04-24T10:25:31;91692.03;;;12.08
79228;BMP280;68658;46.174;11.254;2023-04-24T10:27:58;91693.00;;;12.18
79228;BMP280;68658;46.174;11.254;2023-04-24T10:30:28;91683.94;;;12.13
79228;BMP280;68658;46.174;11.254;2023-04-24T10:32:55;91693.91;;;11.87
79228;BMP280;68658;46.174;11.254;2023-04-24T10:35:22;91689.50;;;12.02
79228;BMP280;68658;46.174;11.254;2023-04-24T10:37:58;91687.44;;;12.08
79228;BMP280;68658;46.174;11.254;2023-04-24T10:40:32;91691.88;;;11.93
79228;BMP280;68658;46.174;11.254;2023-04-24T10:43:04;91697.41;;;11.82
79228;BMP280;68658;46.174;11.254;2023-04-24T10:45:36;91699.06;;;12.26
79228;BMP280;68658;46.174;11.254;2023-04-24T10:48:09;91700.56;;;12.54
79228;BMP280;68658;46.174;11.254;2023-04-24T10:50:46;91705.06;;;12.46
79228;BMP280;68658;46.174;11.254;2023-04-24T10:53:18;91702.94;;;12.65
79228;BMP280;68658;46.174;11.254;2023-04-24T10:55:47;91704.09;;;12.57
79228;BMP280;68658;46.174;11.254;2023-04-24T10:58:13;91696.59;;;12.68
79228;BMP280;68658;46.174;11.254;2023-04-24T11:00:55;91699.53;;;12.78
79228;BMP280;68658;46.174;11.254;2023-04-24T11:03:26;91694.69;;;12.89
79228;BMP280;68658;46.174;11.254;2023-04-24T11:06:06;91697.69;;;12.93
79228;BMP280;68658;46.174;11.254;2023-04-24T11:08:42;91703.94;;;13.31
79228;BMP280;68658;46.174;11.254;2023-04-24T11:11:16;91692.47;;;13.71
79228;BMP280;68658;46.174;11.254;2023-04-24T11:16:25;91693.41;;;13.38
79228;BMP280;68658;46.174;11.254;2023-04-24T11:21:41;91704.41;;;13.50
79228;BMP280;68658;46.174;11.254;2023-04-24T11:26:53;91710.00;;;13.39
79228;BMP280;68658;46.174;11.254;2023-04-24T11:29:23;91697.81;;;13.79
79228;BMP280;68658;46.174;11.254;2023-04-24T11:31:48;91703.81;;;13.72
79228;BMP280;68658;46.174;11.254;2023-04-24T11:34:17;91704.97;;;13.63
79228;BMP280;68658;46.174;11.254;2023-04-24T11:36:47;91705.03;;;13.71
79228;BMP280;68658;46.174;11.254;2023-04-24T11:39:13;91698.41;;;13.99
79228;BMP280;68658;46.174;11.254;2023-04-24T11:41:40;91703.09;;;14.21
79228;BMP280;68658;46.174;11.254;2023-04-24T11:44:07;91710.00;;;14.24
79228;BMP280;68658;46.174;11.254;2023-04-24T11:46:33;91707.66;;;14.13
79228;BMP280;68658;46.174;11.254;2023-04-24T11:48:59;91708.97;;;14.42
79228;BMP280;68658;46.174;11.254;2023-04-24T11:51:27;91704.38;;;14.65
79228;BMP280;68658;46.174;11.254;2023-04-24T11:53:53;91706.53;;;15.04
79228;BMP280;68658;46.174;11.254;2023-04-24T11:56:21;91705.28;;;14.75
79228;BMP280;68658;46.174;11.254;2023-04-24T11:58:48;91704.03;;;14.61
79228;BMP280;68658;46.174;11.254;2023-04-24T12:01:16;91699.63;;;14.64
79228;BMP280;68658;46.174;11.254;2023-04-24T12:03:59;91699.81;;;14.80
79228;BMP280;68658;46.174;11.254;2023-04-24T12:06:25;91702.25;;;15.08
79228;BMP280;68658;46.174;11.254;2023-04-24T12:08:52;91697.16;;;14.95
79228;BMP280;68658;46.174;11.254;2023-04-24T12:11:20;91691.28;;;14.74
79228;BMP280;68658;46.174;11.254;2023-04-24T12:13:47;91692.34;;;14.57
79228;BMP280;68658;46.174;11.254;2023-04-24T12:16:15;91688.44;;;14.65
79228;BMP280;68658;46.174;11.254;2023-04-24T12:18:44;91692.53;;;14.73
79228;BMP280;68658;46.174;11.254;2023-04-24T12:21:21;91698.38;;;14.79
79228;BMP280;68658;46.174;11.254;2023-04-24T12:23:54;91686.31;;;15.01
79228;BMP280;68658;46.174;11.254;2023-04-24T12:26:20;91684.91;;;14.92
79228;BMP280;68658;46.174;11.254;2023-04-24T12:28:48;91685.78;;;14.95
79228;BMP280;68658;46.174;11.254;2023-04-24T12:31:15;91681.34;;;15.12
79228;BMP280;68658;46.174;11.254;2023-04-24T12:33:41;91688.44;;;15.86
79228;BMP280;68658;46.174;11.254;2023-04-24T12:36:10;91680.97;;;16.31
79228;BMP280;68658;46.174;11.254;2023-04-24T12:38:37;91682.78;;;16.22
79228;BMP280;68658;46.174;11.254;2023-04-24T12:41:11;91673.03;;;16.17
79228;BMP280;68658;46.174;11.254;2023-04-24T12:43:37;91674.19;;;16.38
79228;BMP280;68658;46.174;11.254;2023-04-24T12:46:03;91668.47;;;16.41
79228;BMP280;68658;46.174;11.254;2023-04-24T12:48:29;91656.69;;;17.01
79228;BMP280;68658;46.174;11.254;2023-04-24T12:50:56;91661.75;;;17.30
79228;BMP280;68658;46.174;11.254;2023-04-24T12:53:21;91657.13;;;17.31
79228;BMP280;68658;46.174;11.254;2023-04-24T12:55:47;91653.13;;;17.39
79228;BMP280;68658;46.174;11.254;2023-04-24T12:58:19;91658.31;;;17.54
79228;BMP280;68658;46.174;11.254;2023-04-24T13:00:45;91653.19;;;17.83
79228;BMP280;68658;46.174;11.254;2023-04-24T13:03:11;91657.31;;;18.63
79228;BMP280;68658;46.174;11.254;2023-04-24T13:05:37;91642.03;;;19.27
79228;BMP280;68658;46.174;11.254;2023-04-24T13:08:02;91640.78;;;20.32
79228;BMP280;68658;46.174;11.254;2023-04-24T13:10:28;91639.09;;;20.36
79228;BMP280;68658;46.174;11.254;2023-04-24T13:12:53;91643.78;;;19.79
79228;BMP280;68658;46.174;11.254;2023-04-24T13:15:19;91642.53;;;19.71
79228;BMP280;68658;46.174;11.254;2023-04-24T13:17:45;91638.50;;;20.38
79228;BMP280;68658;46.174;11.254;2023-04-24T13:20:10;91651.97;;;20.00
79228;BMP280;68658;46.174;11.254;2023-04-24T13:22:36;91642.75;;;20.90
79228;BMP280;68658;46.174;11.254;2023-04-24T13:25:02;91640.88;;;21.23
79228;BMP280;68658;46.174;11.254;2023-04-24T13:27:28;91608.19;;;21.57
79228;BMP280;68658;46.174;11.254;2023-04-24T13:29:53;91642.47;;;20.27
79228;BMP280;68658;46.174;11.254;2023-04-24T13:32:18;91636.94;;;22.19
79228;BMP280;68658;46.174;11.254;2023-04-24T13:34:44;91631.00;;;22.75
79228;BMP280;68658;46.174;11.254;2023-04-24T13:37:09;91629.16;;;23.12
79228;BMP280;68658;46.174;11.254;2023-04-24T13:39:38;91628.97;;;23.67
79228;BMP280;68658;46.174;11.254;2023-04-24T13:42:03;91622.78;;;23.53
79228;BMP280;68658;46.174;11.254;2023-04-24T13:44:29;91622.47;;;23.36
79228;BMP280;68658;46.174;11.254;2023-04-24T13:46:55;91623.63;;;23.92
79228;BMP280;68658;46.174;11.254;2023-04-24T13:49:23;91585.13;;;22.18
79228;BMP280;68658;46.174;11.254;2023-04-24T13:51:54;91589.09;;;18.71
79228;BMP280;68658;46.174;11.254;2023-04-24T13:54:20;91593.50;;;18.85
79228;BMP280;68658;46.174;11.254;2023-04-24T13:56:45;91588.28;;;20.78
79228;BMP280;68658;46.174;11.254;2023-04-24T13:59:12;91578.38;;;19.35
79228;BMP280;68658;46.174;11.254;2023-04-24T14:01:38;91583.38;;;20.35
79228;BMP280;68658;46.174;11.254;2023-04-24T14:04:04;91623.16;;;20.69
79228;BMP280;68658;46.174;11.254;2023-04-24T14:06:29;91619.06;;;25.75